createdAt,value
2023-01-11T00:00:16.243Z,83.29
2023-01-11T00:01:16.243Z,83.29
2023-01-11T00:02:16.298Z,83.29
2023-01-11T00:03:16.245Z,83.29
2023-01-11T00:04:16.309Z,83.29
2023-01-11T00:05:16.262Z,83.29
2023-01-11T00:06:16.242Z,83.29
2023-01-11T00:07:16.248Z,83.29
2023-01-11T00:08:16.272Z,83.29
2023-01-11T00:09:16.243Z,83.29
2023-01-11T00:10:16.247Z,83.29
2023-01-11T00:11:16.271Z,83.29
2023-01-11T00:12:16.257Z,83.29
2023-01-11T00:13:16.245Z,83.29
2023-01-11T00:14:16.265Z,83.29
2023-01-11T00:15:16.251Z,83.29
2023-01-11T00:16:16.344Z,83.29
2023-01-11T00:17:16.272Z,83.29
2023-01-11T00:18:16.255Z,83.29
2023-01-11T00:19:16.258Z,83.29
2023-01-11T00:20:16.264Z,83.29
2023-01-11T00:21:16.283Z,83.29
2023-01-11T00:22:16.256Z,83.29
2023-01-11T00:23:16.262Z,83.29
2023-01-11T00:24:16.264Z,83.29
2023-01-11T00:25:16.271Z,83.29
2023-01-11T00:26:16.265Z,83.29
2023-01-11T00:27:16.277Z,83.29
2023-01-11T00:28:16.268Z,83.29
2023-01-11T00:29:16.272Z,83.29
2023-01-11T00:30:16.270Z,83.29
2023-01-11T00:31:16.286Z,83.29
2023-01-11T00:32:16.268Z,83.29
2023-01-11T00:33:16.279Z,83.29
2023-01-11T00:34:16.280Z,83.29
2023-01-11T00:35:16.274Z,83.29
2023-01-11T00:36:16.277Z,83.29
2023-01-11T00:37:16.267Z,83.29
2023-01-11T00:38:16.267Z,83.29
2023-01-11T00:39:16.276Z,83.29
2023-01-11T00:40:16.297Z,83.29
2023-01-11T00:41:16.280Z,83.29
2023-01-11T00:42:16.280Z,83.29
2023-01-11T00:43:16.309Z,83.29
2023-01-11T00:44:16.274Z,83.29
2023-01-11T00:45:16.297Z,83.29
2023-01-11T00:46:16.310Z,83.29
2023-01-11T00:47:16.293Z,83.29
2023-01-11T00:48:16.282Z,83.29
2023-01-11T00:49:16.280Z,83.29
2023-01-11T00:50:16.289Z,83.29
2023-01-11T00:51:16.276Z,86.12
2023-01-11T00:52:16.300Z,83.29
2023-01-11T00:53:16.279Z,84.71
2023-01-11T00:54:16.276Z,84.71
2023-01-11T00:55:16.287Z,84.71
2023-01-11T00:56:16.283Z,84.71
2023-01-11T00:57:16.297Z,84.71
2023-01-11T00:58:16.298Z,84.71
2023-01-11T00:59:16.307Z,84.71
2023-01-11T01:00:16.282Z,84.71
2023-01-11T01:01:16.325Z,84.71
2023-01-11T01:02:16.378Z,84.71
2023-01-11T01:03:16.291Z,84.71
2023-01-11T01:04:16.328Z,84.71
2023-01-11T01:05:16.287Z,84.71
2023-01-11T01:06:16.294Z,117.18
2023-01-11T01:07:16.292Z,134.12
2023-01-11T01:08:16.291Z,138.35
2023-01-11T01:09:16.294Z,138.35
2023-01-11T01:10:16.304Z,138.35
2023-01-11T01:11:16.305Z,138.35
2023-01-11T01:12:16.291Z,138.35
2023-01-11T01:13:16.294Z,138.35
2023-01-11T01:14:16.312Z,138.35
2023-01-11T01:15:16.316Z,138.35
2023-01-11T01:16:16.335Z,138.35
2023-01-11T01:17:16.295Z,138.35
2023-01-11T01:18:16.296Z,138.35
2023-01-11T01:19:16.293Z,138.35
2023-01-11T01:20:16.286Z,138.35
2023-01-11T01:21:16.294Z,138.35
2023-01-11T01:22:16.304Z,138.35
2023-01-11T01:23:16.290Z,138.35
2023-01-11T01:24:16.288Z,138.35
2023-01-11T01:25:16.299Z,138.35
2023-01-11T01:26:16.292Z,138.35
2023-01-11T01:27:16.305Z,138.35
2023-01-11T01:28:16.293Z,138.35
2023-01-11T01:29:16.314Z,138.35
2023-01-11T01:30:16.308Z,138.35
2023-01-11T01:31:16.386Z,138.35
2023-01-11T01:32:16.333Z,138.35
2023-01-11T01:33:16.298Z,138.35
2023-01-11T01:34:16.323Z,138.35
2023-01-11T01:35:16.310Z,138.35
2023-01-11T01:36:16.300Z,138.35
2023-01-11T01:37:16.322Z,138.35
2023-01-11T01:38:16.342Z,138.35
2023-01-11T01:39:16.320Z,138.35
2023-01-11T01:40:16.316Z,138.35
2023-01-11T01:41:16.329Z,138.35
2023-01-11T01:42:16.334Z,138.35
2023-01-11T01:43:16.330Z,138.35
2023-01-11T01:44:16.318Z,138.35
2023-01-11T01:45:16.332Z,138.35
2023-01-11T01:46:16.334Z,138.35
2023-01-11T01:47:16.338Z,138.35
2023-01-11T01:48:16.339Z,138.35
2023-01-11T01:49:16.350Z,138.35
2023-01-11T01:50:16.330Z,138.35
2023-01-11T01:51:16.344Z,138.35
2023-01-11T01:52:16.347Z,138.35
2023-01-11T01:53:16.333Z,138.35
2023-01-11T01:54:16.348Z,117.18
2023-01-11T01:55:16.352Z,117.18
2023-01-11T01:56:16.346Z,117.18
2023-01-11T01:57:16.344Z,117.18
2023-01-11T01:58:16.346Z,117.18
2023-01-11T01:59:16.352Z,117.18
2023-01-11T02:00:16.344Z,117.18
2023-01-11T02:01:16.387Z,117.18
2023-01-11T02:02:16.356Z,117.18
2023-01-11T02:03:16.386Z,117.18
2023-01-11T02:04:16.363Z,117.18
2023-01-11T02:05:16.365Z,117.18
2023-01-11T02:06:16.351Z,117.18
2023-01-11T02:07:16.350Z,117.18
2023-01-11T02:08:16.357Z,117.18
2023-01-11T02:09:16.361Z,117.18
2023-01-11T02:10:16.377Z,117.18
2023-01-11T02:11:16.354Z,117.18
2023-01-11T02:12:16.371Z,117.18
2023-01-11T02:13:16.369Z,117.18
2023-01-11T02:14:16.374Z,117.18
2023-01-11T02:15:16.364Z,117.18
2023-01-11T02:16:16.407Z,117.18
2023-01-11T02:17:16.382Z,117.18
2023-01-11T02:18:16.370Z,117.18
2023-01-11T02:19:16.386Z,117.18
2023-01-11T02:20:16.366Z,117.18
2023-01-11T02:21:16.377Z,117.18
2023-01-11T02:22:16.393Z,117.18
2023-01-11T02:23:16.376Z,117.18
2023-01-11T02:24:16.371Z,117.18
2023-01-11T02:25:16.381Z,117.18
2023-01-11T02:26:16.385Z,117.18
2023-01-11T02:27:16.396Z,117.18
2023-01-11T02:28:16.398Z,117.18
2023-01-11T02:29:16.377Z,117.18
2023-01-11T02:30:16.376Z,117.18
2023-01-11T02:31:16.432Z,117.18
2023-01-11T02:32:16.375Z,117.18
2023-01-11T02:33:16.375Z,117.18
2023-01-11T02:34:16.384Z,117.18
2023-01-11T02:35:16.407Z,117.18
2023-01-11T02:36:16.381Z,117.18
2023-01-11T02:37:16.394Z,117.18
2023-01-11T02:38:16.384Z,117.18
2023-01-11T02:39:16.396Z,117.18
2023-01-11T02:40:16.392Z,117.18
2023-01-11T02:41:16.407Z,117.18
2023-01-11T02:42:16.403Z,117.18
2023-01-11T02:43:16.397Z,117.18
2023-01-11T02:44:16.395Z,117.18
2023-01-11T02:45:16.388Z,117.18
2023-01-11T02:46:16.447Z,117.18
2023-01-11T02:47:16.403Z,117.18
2023-01-11T02:48:16.397Z,117.18
2023-01-11T02:49:16.410Z,117.18
2023-01-11T02:50:16.424Z,117.18
2023-01-11T02:51:16.450Z,117.18
2023-01-11T02:52:16.416Z,117.18
2023-01-11T02:53:16.433Z,117.18
2023-01-11T02:54:16.424Z,117.18
2023-01-11T02:55:16.445Z,117.18
2023-01-11T02:56:16.425Z,117.18
2023-01-11T02:57:16.433Z,117.18
2023-01-11T02:58:16.420Z,117.18
2023-01-11T02:59:16.429Z,117.18
2023-01-11T03:00:16.449Z,117.18
2023-01-11T03:01:16.548Z,117.18
2023-01-11T03:02:16.420Z,117.18
2023-01-11T03:03:16.443Z,117.18
2023-01-11T03:04:16.424Z,117.18
2023-01-11T03:05:16.440Z,117.18
2023-01-11T03:06:16.442Z,117.18
2023-01-11T03:07:16.469Z,117.18
2023-01-11T03:08:16.447Z,117.18
2023-01-11T03:09:16.451Z,117.18
2023-01-11T03:10:16.435Z,117.18
2023-01-11T03:11:16.450Z,117.18
2023-01-11T03:12:16.452Z,117.18
2023-01-11T03:13:16.446Z,117.18
2023-01-11T03:14:16.456Z,117.18
2023-01-11T03:15:16.473Z,117.18
2023-01-11T03:16:16.557Z,117.18
2023-01-11T03:17:16.472Z,117.18
2023-01-11T03:18:16.456Z,117.18
2023-01-11T03:19:16.494Z,117.18
2023-01-11T03:20:16.452Z,117.18
2023-01-11T03:21:16.464Z,117.18
2023-01-11T03:22:16.476Z,117.18
2023-01-11T03:23:16.498Z,117.18
2023-01-11T03:24:16.481Z,117.18
2023-01-11T03:25:16.469Z,117.18
2023-01-11T03:26:16.479Z,117.18
2023-01-11T03:27:16.465Z,117.18
2023-01-11T03:28:16.485Z,117.18
2023-01-11T03:29:16.478Z,117.18
2023-01-11T03:30:16.466Z,117.18
2023-01-11T03:31:16.527Z,117.18
2023-01-11T03:32:16.476Z,117.18
2023-01-11T03:33:16.474Z,117.18
2023-01-11T03:34:16.498Z,117.18
2023-01-11T03:35:16.468Z,117.18
2023-01-11T03:36:16.485Z,117.18
2023-01-11T03:37:16.487Z,117.18
2023-01-11T03:38:16.515Z,117.18
2023-01-11T03:39:16.516Z,117.18
2023-01-11T03:40:16.512Z,117.18
2023-01-11T03:41:16.488Z,117.18
2023-01-11T03:42:16.493Z,117.18
2023-01-11T03:43:16.493Z,117.18
2023-01-11T03:44:16.491Z,117.18
2023-01-11T03:45:16.512Z,117.18
2023-01-11T03:46:16.541Z,117.18
2023-01-11T03:47:16.519Z,117.18
2023-01-11T03:48:16.500Z,117.18
2023-01-11T03:49:16.508Z,117.18
2023-01-11T03:50:16.495Z,117.18
2023-01-11T03:51:16.505Z,117.18
2023-01-11T03:52:16.500Z,117.18
2023-01-11T03:53:16.505Z,117.18
2023-01-11T03:54:16.519Z,117.18
2023-01-11T03:55:16.535Z,117.18
2023-01-11T03:56:16.516Z,117.18
2023-01-11T03:57:16.507Z,117.18
2023-01-11T03:58:16.532Z,117.18
2023-01-11T03:59:16.508Z,117.18
2023-01-11T04:00:16.511Z,117.18
2023-01-11T04:01:16.607Z,117.18
2023-01-11T04:02:16.524Z,117.18
2023-01-11T04:03:16.522Z,117.18
2023-01-11T04:04:16.567Z,117.18
2023-01-11T04:05:16.536Z,117.18
2023-01-11T04:06:16.510Z,117.18
2023-01-11T04:07:16.523Z,117.18
2023-01-11T04:08:16.534Z,117.18
2023-01-11T04:09:16.521Z,117.18
2023-01-11T04:10:16.534Z,117.18
2023-01-11T04:11:16.552Z,117.18
2023-01-11T04:12:16.532Z,117.18
2023-01-11T04:13:16.541Z,117.18
2023-01-11T04:14:16.549Z,117.18
2023-01-11T04:15:16.532Z,117.18
2023-01-11T04:16:16.549Z,117.18
2023-01-11T04:17:16.539Z,117.18
2023-01-11T04:18:16.549Z,117.18
2023-01-11T04:19:16.531Z,117.18
2023-01-11T04:20:16.527Z,117.18
2023-01-11T04:21:16.551Z,117.18
2023-01-11T04:22:16.545Z,117.18
2023-01-11T04:23:16.544Z,117.18
2023-01-11T04:24:16.535Z,117.18
2023-01-11T04:25:16.576Z,117.18
2023-01-11T04:26:16.538Z,117.18
2023-01-11T04:27:16.577Z,117.18
2023-01-11T04:28:16.537Z,117.18
2023-01-11T04:29:16.544Z,117.18
2023-01-11T04:30:16.556Z,117.18
2023-01-11T04:31:16.567Z,117.18
2023-01-11T04:32:16.557Z,117.18
2023-01-11T04:33:16.562Z,117.18
2023-01-11T04:34:16.549Z,117.18
2023-01-11T04:35:16.548Z,117.18
2023-01-11T04:36:16.560Z,117.18
2023-01-11T04:37:16.549Z,117.18
2023-01-11T04:38:16.553Z,117.18
2023-01-11T04:39:16.566Z,117.18
2023-01-11T04:40:16.545Z,117.18
2023-01-11T04:41:16.562Z,117.18
2023-01-11T04:42:16.579Z,117.18
2023-01-11T04:43:16.594Z,117.18
2023-01-11T04:44:16.561Z,117.18
2023-01-11T04:45:16.592Z,117.18
2023-01-11T04:46:16.559Z,117.18
2023-01-11T04:47:16.570Z,117.18
2023-01-11T04:48:16.561Z,117.18
2023-01-11T04:49:16.568Z,117.18
2023-01-11T04:50:16.597Z,117.18
2023-01-11T04:51:16.558Z,117.18
2023-01-11T04:52:16.569Z,117.18
2023-01-11T04:53:16.561Z,117.18
2023-01-11T04:54:16.587Z,117.18
2023-01-11T04:55:16.564Z,117.18
2023-01-11T04:56:16.572Z,117.18
2023-01-11T04:57:16.561Z,117.18
2023-01-11T04:58:16.595Z,117.18
2023-01-11T04:59:16.598Z,117.18
2023-01-11T05:00:16.579Z,117.18
2023-01-11T05:01:16.638Z,117.18
2023-01-11T05:02:16.572Z,117.18
2023-01-11T05:03:16.590Z,117.18
2023-01-11T05:04:16.650Z,117.18
2023-01-11T05:05:16.574Z,117.18
2023-01-11T05:06:16.579Z,117.18
2023-01-11T05:07:16.586Z,117.18
2023-01-11T05:08:16.608Z,117.18
2023-01-11T05:09:16.599Z,117.18
2023-01-11T05:10:16.571Z,117.18
2023-01-11T05:11:16.588Z,117.18
2023-01-11T05:12:16.585Z,117.18
2023-01-11T05:13:16.585Z,117.18
2023-01-11T05:14:16.598Z,117.18
2023-01-11T05:15:16.611Z,117.18
2023-01-11T05:16:16.592Z,117.18
2023-01-11T05:17:16.606Z,117.18
2023-01-11T05:18:16.587Z,117.18
2023-01-11T05:19:16.589Z,117.18
2023-01-11T05:20:16.603Z,117.18
2023-01-11T05:21:16.600Z,117.18
2023-01-11T05:22:16.601Z,117.18
2023-01-11T05:23:16.587Z,117.18
2023-01-11T05:24:16.610Z,117.18
2023-01-11T05:25:16.623Z,117.18
2023-01-11T05:26:16.599Z,117.18
2023-01-11T05:27:16.627Z,117.18
2023-01-11T05:28:16.604Z,117.18
2023-01-11T05:29:16.613Z,117.18
2023-01-11T05:30:16.598Z,117.18
2023-01-11T05:31:16.710Z,117.18
2023-01-11T05:32:16.599Z,117.18
2023-01-11T05:33:16.609Z,117.18
2023-01-11T05:34:16.590Z,117.18
2023-01-11T05:35:16.602Z,117.18
2023-01-11T05:36:16.602Z,117.18
2023-01-11T05:37:16.618Z,117.18
2023-01-11T05:38:16.596Z,117.18
2023-01-11T05:39:16.608Z,117.18
2023-01-11T05:40:16.612Z,117.18
2023-01-11T05:41:16.611Z,117.18
2023-01-11T05:42:16.626Z,117.18
2023-01-11T05:43:16.612Z,117.18
2023-01-11T05:44:16.605Z,117.18
2023-01-11T05:45:16.606Z,117.18
2023-01-11T05:46:16.647Z,117.18
2023-01-11T05:47:16.646Z,117.18
2023-01-11T05:48:16.615Z,117.18
2023-01-11T05:49:16.619Z,117.18
2023-01-11T05:50:16.607Z,117.18
2023-01-11T05:51:16.621Z,117.18
2023-01-11T05:52:16.599Z,117.18
2023-01-11T05:53:16.611Z,117.18
2023-01-11T05:54:16.609Z,117.18
2023-01-11T05:55:16.614Z,117.18
2023-01-11T05:56:16.601Z,117.18
2023-01-11T05:57:16.629Z,117.18
2023-01-11T05:58:16.623Z,117.18
2023-01-11T05:59:16.599Z,117.18
2023-01-11T06:00:16.618Z,117.18
2023-01-11T06:01:16.607Z,117.18
2023-01-11T06:02:16.724Z,117.18
2023-01-11T06:03:16.687Z,117.18
2023-01-11T06:04:16.616Z,117.18
2023-01-11T06:05:16.603Z,117.18
2023-01-11T06:06:16.619Z,117.18
2023-01-11T06:07:16.610Z,117.18
2023-01-11T06:08:16.619Z,117.18
2023-01-11T06:09:16.610Z,117.18
2023-01-11T06:10:16.624Z,117.18
2023-01-11T06:11:16.600Z,117.18
2023-01-11T06:12:16.605Z,117.18
2023-01-11T06:13:16.627Z,117.18
2023-01-11T06:14:16.606Z,117.18
2023-01-11T06:15:16.625Z,117.18
2023-01-11T06:16:16.671Z,117.18
2023-01-11T06:17:16.640Z,117.18
2023-01-11T06:18:16.632Z,117.18
2023-01-11T06:19:16.709Z,117.18
2023-01-11T06:20:16.618Z,117.18
2023-01-11T06:21:16.626Z,117.18
2023-01-11T06:22:16.615Z,117.18
2023-01-11T06:23:16.617Z,117.18
2023-01-11T06:24:16.607Z,117.18
2023-01-11T06:25:16.615Z,117.18
2023-01-11T06:26:16.693Z,117.18
2023-01-11T06:27:16.616Z,117.18
2023-01-11T06:28:16.619Z,117.18
2023-01-11T06:29:16.624Z,117.18
2023-01-11T06:30:16.632Z,117.18
2023-01-11T06:31:17.737Z,117.18
2023-01-11T06:32:16.618Z,117.18
2023-01-11T06:33:16.635Z,117.18
2023-01-11T06:34:16.634Z,117.18
2023-01-11T06:35:16.650Z,117.18
2023-01-11T06:36:16.635Z,117.18
2023-01-11T06:37:16.621Z,117.18
2023-01-11T06:38:16.634Z,117.18
2023-01-11T06:39:16.673Z,117.18
2023-01-11T06:40:16.652Z,117.18
2023-01-11T06:41:16.664Z,117.18
2023-01-11T06:42:16.633Z,117.18
2023-01-11T06:43:16.636Z,117.18
2023-01-11T06:44:16.653Z,117.18
2023-01-11T06:45:16.631Z,117.18
2023-01-11T06:46:16.716Z,117.18
2023-01-11T06:47:16.630Z,117.18
2023-01-11T06:48:16.619Z,117.18
2023-01-11T06:49:16.642Z,117.18
2023-01-11T06:50:16.641Z,117.18
2023-01-11T06:51:16.659Z,117.18
2023-01-11T06:52:16.643Z,117.18
2023-01-11T06:53:16.629Z,117.18
2023-01-11T06:54:16.633Z,117.18
2023-01-11T06:55:16.652Z,117.18
2023-01-11T06:56:16.654Z,117.18
2023-01-11T06:57:16.646Z,117.18
2023-01-11T06:58:16.651Z,117.18
2023-01-11T06:59:16.666Z,117.18
2023-01-11T07:00:16.652Z,117.18
2023-01-11T07:01:16.770Z,117.18
2023-01-11T07:02:16.650Z,117.18
2023-01-11T07:03:16.655Z,117.18
2023-01-11T07:04:16.662Z,117.18
2023-01-11T07:05:18.937Z,117.18
2023-01-11T07:06:16.657Z,117.18
2023-01-11T07:07:16.771Z,117.18
2023-01-11T07:08:16.662Z,117.18
2023-01-11T07:09:16.649Z,117.18
2023-01-11T07:10:16.659Z,117.18
2023-01-11T07:11:16.686Z,117.18
2023-01-11T07:12:16.669Z,117.18
2023-01-11T07:13:16.665Z,117.18
2023-01-11T07:14:16.675Z,117.18
2023-01-11T07:15:16.720Z,117.18
2023-01-11T07:16:16.677Z,117.18
2023-01-11T07:17:16.670Z,117.18
2023-01-11T07:18:16.666Z,117.18
2023-01-11T07:19:16.681Z,117.18
2023-01-11T07:20:16.658Z,117.18
2023-01-11T07:21:16.676Z,117.18
2023-01-11T07:22:16.669Z,117.18
2023-01-11T07:23:16.692Z,117.18
2023-01-11T07:24:16.677Z,117.18
2023-01-11T07:25:16.672Z,117.18
2023-01-11T07:26:16.743Z,117.18
2023-01-11T07:27:16.686Z,117.18
2023-01-11T07:28:16.683Z,117.18
2023-01-11T07:29:16.690Z,117.18
2023-01-11T07:30:16.689Z,117.18
2023-01-11T07:31:16.681Z,117.18
2023-01-11T07:32:16.690Z,117.18
2023-01-11T07:33:16.720Z,117.18
2023-01-11T07:34:16.681Z,117.18
2023-01-11T07:35:16.684Z,117.18
2023-01-11T07:36:16.683Z,117.18
2023-01-11T07:37:27.902Z,117.18
2023-01-11T07:38:16.696Z,117.18
2023-01-11T07:39:16.712Z,117.18
2023-01-11T07:40:16.695Z,117.18
2023-01-11T07:41:16.683Z,117.18
2023-01-11T07:42:16.705Z,117.18
2023-01-11T07:43:16.690Z,117.18
2023-01-11T07:44:16.690Z,117.18
2023-01-11T07:45:16.772Z,117.18
2023-01-11T07:46:16.782Z,117.18
2023-01-11T07:47:16.695Z,117.18
2023-01-11T07:48:16.689Z,117.18
2023-01-11T07:49:16.698Z,117.18
2023-01-11T07:50:16.695Z,117.18
2023-01-11T07:51:16.719Z,117.18
2023-01-11T07:52:16.691Z,117.18
2023-01-11T07:53:16.708Z,117.18
2023-01-11T07:54:16.701Z,117.18
2023-01-11T07:55:16.744Z,117.18
2023-01-11T07:56:16.716Z,117.18
2023-01-11T07:57:16.717Z,117.18
2023-01-11T07:58:16.716Z,117.18
2023-01-11T07:59:16.721Z,117.18
2023-01-11T08:00:16.743Z,117.18
2023-01-11T08:01:16.710Z,117.18
2023-01-11T08:02:16.760Z,117.18
2023-01-11T08:03:16.864Z,117.18
2023-01-11T08:04:16.717Z,117.18
2023-01-11T08:05:16.719Z,117.18
2023-01-11T08:06:16.716Z,117.18
2023-01-11T08:07:16.722Z,117.18
2023-01-11T08:08:16.722Z,117.18
2023-01-11T08:09:16.726Z,117.18
2023-01-11T08:10:16.719Z,117.18
2023-01-11T08:11:16.770Z,117.18
2023-01-11T08:12:16.731Z,117.18
2023-01-11T08:13:16.737Z,117.18
2023-01-11T08:14:16.745Z,117.18
2023-01-11T08:15:16.741Z,117.18
2023-01-11T08:16:16.789Z,117.18
2023-01-11T08:17:16.763Z,117.18
2023-01-11T08:18:16.751Z,117.18
2023-01-11T08:19:16.753Z,117.18
2023-01-11T08:20:16.739Z,117.18
2023-01-11T08:21:16.736Z,117.18
2023-01-11T08:22:16.737Z,117.18
2023-01-11T08:23:16.738Z,117.18
2023-01-11T08:24:16.736Z,117.18
2023-01-11T08:25:16.738Z,117.18
2023-01-11T08:26:16.735Z,117.18
2023-01-11T08:27:16.765Z,117.18
2023-01-11T08:28:16.752Z,117.18
2023-01-11T08:29:16.747Z,117.18
2023-01-11T08:30:16.751Z,117.18
2023-01-11T08:31:16.778Z,117.18
2023-01-11T08:32:16.772Z,117.18
2023-01-11T08:33:16.745Z,117.18
2023-01-11T08:34:16.771Z,117.18
2023-01-11T08:35:16.755Z,117.18
2023-01-11T08:36:16.759Z,117.18
2023-01-11T08:37:16.749Z,117.18
2023-01-11T08:38:16.744Z,117.18
2023-01-11T08:39:16.761Z,117.18
2023-01-11T08:40:16.749Z,117.18
2023-01-11T08:41:16.755Z,117.18
2023-01-11T08:42:16.755Z,117.18
2023-01-11T08:43:16.773Z,117.18
2023-01-11T08:44:19.508Z,117.18
2023-01-11T08:45:16.758Z,117.18
2023-01-11T08:46:16.798Z,117.18
2023-01-11T08:47:16.771Z,117.18
2023-01-11T08:48:16.757Z,117.18
2023-01-11T08:49:16.756Z,117.18
2023-01-11T08:50:16.764Z,117.18
2023-01-11T08:51:16.756Z,117.18
2023-01-11T08:52:16.755Z,117.18
2023-01-11T08:53:16.766Z,117.18
2023-01-11T08:54:16.774Z,117.18
2023-01-11T08:55:16.753Z,117.18
2023-01-11T08:56:16.762Z,117.18
2023-01-11T08:57:16.775Z,117.18
2023-01-11T08:58:16.762Z,117.18
2023-01-11T08:59:16.796Z,117.18
2023-01-11T09:00:16.765Z,117.18
2023-01-11T09:01:16.809Z,117.18
2023-01-11T09:02:16.769Z,117.18
2023-01-11T09:03:16.785Z,117.18
2023-01-11T09:04:24.520Z,117.18
2023-01-11T09:05:18.244Z,117.18
2023-01-11T09:06:16.781Z,117.18
2023-01-11T09:07:16.768Z,117.18
2023-01-11T09:08:16.772Z,117.18
2023-01-11T09:09:16.784Z,117.18
2023-01-11T09:10:16.794Z,117.18
2023-01-11T09:11:16.813Z,117.18
2023-01-11T09:12:16.781Z,117.18
2023-01-11T09:13:16.792Z,117.18
2023-01-11T09:14:16.792Z,117.18
2023-01-11T09:15:16.826Z,117.18
2023-01-11T09:16:16.883Z,117.18
2023-01-11T09:17:16.784Z,117.18
2023-01-11T09:18:16.796Z,117.18
2023-01-11T09:19:16.795Z,117.18
2023-01-11T09:20:16.795Z,117.18
2023-01-11T09:21:16.791Z,117.18
2023-01-11T09:22:16.788Z,117.18
2023-01-11T09:23:16.781Z,117.18
2023-01-11T09:24:16.800Z,117.18
2023-01-11T09:25:16.790Z,117.18
2023-01-11T09:26:16.807Z,117.18
2023-01-11T09:27:16.925Z,117.18
2023-01-11T09:28:16.793Z,117.18
2023-01-11T09:29:16.833Z,117.18
2023-01-11T09:30:16.800Z,117.18
2023-01-11T09:31:16.898Z,117.18
2023-01-11T09:32:16.823Z,117.18
2023-01-11T09:33:16.811Z,117.18
2023-01-11T09:34:16.803Z,117.18
2023-01-11T09:35:16.787Z,117.18
2023-01-11T09:36:16.797Z,117.18
2023-01-11T09:37:16.825Z,117.18
2023-01-11T09:38:16.802Z,117.18
2023-01-11T09:39:16.802Z,117.18
2023-01-11T09:40:16.811Z,117.18
2023-01-11T09:41:16.798Z,117.18
2023-01-11T09:42:16.816Z,117.18
2023-01-11T09:43:16.806Z,117.18
2023-01-11T09:44:16.807Z,117.18
2023-01-11T09:45:16.827Z,117.18
2023-01-11T09:46:16.825Z,117.18
2023-01-11T09:47:16.836Z,117.18
2023-01-11T09:48:16.804Z,117.18
2023-01-11T09:49:16.806Z,117.18
2023-01-11T09:50:16.809Z,117.18
2023-01-11T09:51:16.807Z,117.18
2023-01-11T09:52:16.842Z,117.18
2023-01-11T09:53:16.824Z,117.18
2023-01-11T09:54:16.816Z,117.18
2023-01-11T09:55:16.836Z,117.18
2023-01-11T09:56:16.860Z,117.18
2023-01-11T09:57:16.818Z,117.18
2023-01-11T09:58:16.842Z,117.18
2023-01-11T09:59:16.829Z,117.18
2023-01-11T10:00:16.836Z,117.18
2023-01-11T10:01:16.884Z,117.18
2023-01-11T10:02:16.828Z,117.18
2023-01-11T10:03:16.870Z,117.18
2023-01-11T10:04:16.838Z,117.18
2023-01-11T10:05:16.841Z,117.18
2023-01-11T10:06:16.849Z,117.18
2023-01-11T10:07:16.869Z,117.18
2023-01-11T10:18:24.006Z,117.18
2023-01-11T10:18:24.021Z,117.18
2023-01-11T10:18:24.544Z,117.18
2023-01-11T10:18:25.085Z,117.18
2023-01-11T10:18:34.764Z,117.18
2023-01-11T10:19:35.791Z,117.18
2023-01-11T10:20:16.923Z,117.18
2023-01-11T10:21:16.862Z,117.18
2023-01-11T10:22:16.849Z,117.18
2023-01-11T10:23:16.843Z,117.18
2023-01-11T10:24:16.848Z,117.18
2023-01-11T10:25:16.856Z,117.18
2023-01-11T10:26:16.839Z,117.18
2023-01-11T10:27:16.911Z,117.18
2023-01-11T10:28:16.835Z,117.18
2023-01-11T10:29:16.922Z,117.18
2023-01-11T10:30:16.845Z,117.18
2023-01-11T10:31:16.885Z,117.18
2023-01-11T10:32:16.844Z,117.18
2023-01-11T10:33:16.850Z,117.18
2023-01-11T10:34:16.874Z,117.18
2023-01-11T10:35:16.892Z,117.18
2023-01-11T10:36:16.846Z,117.18
2023-01-11T10:37:16.868Z,117.18
2023-01-11T10:38:16.863Z,117.18
2023-01-11T10:39:16.852Z,117.18
2023-01-11T10:40:16.880Z,117.18
2023-01-11T10:41:16.849Z,117.18
2023-01-11T10:42:16.858Z,117.18
2023-01-11T10:43:17.044Z,117.18
2023-01-11T10:44:16.862Z,117.18
2023-01-11T10:45:16.865Z,180.71
2023-01-11T10:46:16.908Z,180.71
2023-01-11T10:47:16.861Z,168
2023-01-11T10:48:16.859Z,168
2023-01-11T10:49:16.857Z,168
2023-01-11T10:50:16.864Z,168
2023-01-11T10:51:16.883Z,168
2023-01-11T10:52:16.864Z,168
2023-01-11T10:53:16.870Z,168
2023-01-11T10:54:16.903Z,168
2023-01-11T10:55:16.860Z,168
2023-01-11T10:56:16.854Z,168
2023-01-11T10:57:16.859Z,168
2023-01-11T10:58:16.871Z,168
2023-01-11T10:59:16.862Z,168
2023-01-11T11:00:16.850Z,168
2023-01-11T11:01:16.893Z,168
2023-01-11T11:02:16.902Z,168
2023-01-11T11:03:16.870Z,168
2023-01-11T11:04:16.853Z,168
2023-01-11T11:05:16.868Z,168
2023-01-11T11:06:16.866Z,168
2023-01-11T11:07:16.893Z,168
2023-01-11T11:08:16.861Z,168
2023-01-11T11:09:16.885Z,168
2023-01-11T11:10:16.868Z,168
2023-01-11T11:11:16.861Z,168
2023-01-11T11:12:16.869Z,168
2023-01-11T11:13:16.911Z,168
2023-01-11T11:14:16.878Z,168
2023-01-11T11:15:16.872Z,168
2023-01-11T11:16:16.923Z,168
2023-01-11T11:17:16.864Z,168
2023-01-11T11:18:16.865Z,168
2023-01-11T11:19:16.879Z,168
2023-01-11T11:20:16.863Z,168
2023-01-11T11:21:16.868Z,168
2023-01-11T11:22:16.863Z,168
2023-01-11T11:23:16.894Z,168
2023-01-11T11:24:16.874Z,168
2023-01-11T11:25:16.877Z,168
2023-01-11T11:26:16.866Z,168
2023-01-11T11:27:16.951Z,168
2023-01-11T11:28:16.869Z,168
2023-01-11T11:29:16.881Z,168
2023-01-11T11:30:16.870Z,168
2023-01-11T11:31:16.900Z,168
2023-01-11T11:32:16.878Z,168
2023-01-11T11:33:16.880Z,168
2023-01-11T11:34:16.896Z,168
2023-01-11T11:35:16.871Z,168
2023-01-11T11:36:16.872Z,168
2023-01-11T11:37:16.871Z,168
2023-01-11T11:38:16.874Z,168
2023-01-11T11:39:16.892Z,168
2023-01-11T11:40:16.863Z,168
2023-01-11T11:41:16.892Z,168
2023-01-11T11:42:16.885Z,168
2023-01-11T11:43:16.876Z,168
2023-01-11T11:44:16.863Z,168
2023-01-11T11:45:16.890Z,168
2023-01-11T11:46:20.440Z,168
2023-01-11T11:47:16.882Z,168
2023-01-11T11:48:16.879Z,168
2023-01-11T11:49:16.872Z,168
2023-01-11T11:50:18.810Z,168
2023-01-11T11:51:16.873Z,168
2023-01-11T11:52:16.870Z,168
2023-01-11T11:53:16.873Z,168
2023-01-11T11:54:16.881Z,168
2023-01-11T11:55:16.944Z,168
2023-01-11T11:56:16.875Z,168
2023-01-11T11:57:16.865Z,168
2023-01-11T11:58:16.867Z,168
2023-01-11T11:59:16.876Z,168
2023-01-11T12:00:16.970Z,168
2023-01-11T12:01:16.873Z,168
2023-01-11T12:02:16.966Z,168
2023-01-11T12:03:16.872Z,168
2023-01-11T12:04:16.876Z,168
2023-01-11T12:05:16.924Z,168
2023-01-11T12:06:16.892Z,168
2023-01-11T12:07:16.883Z,168
2023-01-11T12:08:16.864Z,168
2023-01-11T12:09:16.879Z,168
2023-01-11T12:10:16.950Z,168
2023-01-11T12:11:16.903Z,168
2023-01-11T12:12:16.868Z,168
2023-01-11T12:13:16.875Z,168
2023-01-11T12:14:16.879Z,168
2023-01-11T12:15:16.872Z,168
2023-01-11T12:16:16.878Z,168
2023-01-11T12:17:16.883Z,168
2023-01-11T12:18:16.885Z,201.88
2023-01-11T12:19:16.865Z,254.12
2023-01-11T12:20:16.873Z,172.24
2023-01-11T12:21:16.882Z,210.35
2023-01-11T12:22:16.863Z,230.12
2023-01-11T12:23:16.912Z,228.71
2023-01-11T12:24:16.869Z,238.59
2023-01-11T12:25:16.883Z,186.35
2023-01-11T12:26:16.868Z,184.94
2023-01-11T12:27:16.989Z,194.82
2023-01-11T12:28:16.874Z,166.59
2023-01-11T12:29:16.888Z,166.59
2023-01-11T12:30:19.902Z,242.82
2023-01-11T12:31:16.912Z,242.82
2023-01-11T12:32:16.876Z,242.82
2023-01-11T12:33:16.881Z,242.82
2023-01-11T12:34:16.870Z,242.82
2023-01-11T12:35:16.878Z,242.82
2023-01-11T12:36:16.876Z,242.82
2023-01-11T12:37:16.881Z,242.82
2023-01-11T12:38:16.882Z,242.82
2023-01-11T12:39:16.889Z,242.82
2023-01-11T12:40:16.889Z,242.82
2023-01-11T12:41:16.879Z,242.82
2023-01-11T12:42:16.880Z,242.82
2023-01-11T12:43:16.963Z,242.82
2023-01-11T12:44:16.893Z,242.82
2023-01-11T12:45:16.881Z,242.82